createdAt,value
2018-07-21T00:00:19.582Z,0
2018-07-21T00:00:45.723Z,0
2018-07-21T00:01:11.866Z,0
2018-07-21T00:01:38.050Z,0
2018-07-21T00:02:04.189Z,0
2018-07-21T00:02:30.335Z,0
2018-07-21T00:02:56.495Z,0
2018-07-21T00:03:22.638Z,0
2018-07-21T00:03:48.780Z,0
2018-07-21T00:04:14.925Z,0
2018-07-21T00:04:41.062Z,0
2018-07-21T00:05:07.200Z,0
2018-07-21T00:05:33.366Z,0
2018-07-21T00:05:59.498Z,0
2018-07-21T00:06:25.640Z,0
2018-07-21T00:06:51.783Z,0
2018-07-21T00:07:17.921Z,0
2018-07-21T00:07:44.061Z,0
2018-07-21T00:08:10.197Z,0
2018-07-21T00:08:36.363Z,0
2018-07-21T00:09:02.519Z,0
2018-07-21T00:09:28.650Z,0
2018-07-21T00:09:54.795Z,0
2018-07-21T00:10:20.957Z,0
2018-07-21T00:10:47.145Z,0
2018-07-21T00:11:13.283Z,0
2018-07-21T00:11:39.421Z,0
2018-07-21T00:12:05.583Z,0
2018-07-21T00:12:31.724Z,0
2018-07-21T00:12:57.888Z,0
2018-07-21T00:13:24.053Z,0
2018-07-21T00:13:50.199Z,0
2018-07-21T00:14:16.386Z,0
2018-07-21T00:14:42.476Z,0
2018-07-21T00:15:08.620Z,0
2018-07-21T00:15:34.803Z,0
2018-07-21T00:16:00.942Z,0
2018-07-21T00:16:27.081Z,0
2018-07-21T00:16:53.223Z,0
2018-07-21T00:17:19.395Z,0
2018-07-21T00:17:45.559Z,0
2018-07-21T00:18:11.728Z,0
2018-07-21T00:18:37.871Z,0
2018-07-21T00:19:04.064Z,0
2018-07-21T00:19:30.183Z,0
2018-07-21T00:19:56.320Z,0
2018-07-21T00:20:22.477Z,0
2018-07-21T00:20:48.621Z,0
2018-07-21T00:21:14.758Z,0
2018-07-21T00:21:40.929Z,0
2018-07-21T00:22:07.068Z,0
2018-07-21T00:22:33.228Z,0
2018-07-21T00:22:59.364Z,0
2018-07-21T00:23:25.504Z,0
2018-07-21T00:23:51.665Z,0
2018-07-21T00:24:17.809Z,0
2018-07-21T00:24:43.950Z,0
2018-07-21T00:25:10.092Z,0
2018-07-21T00:25:36.250Z,0
2018-07-21T00:26:02.425Z,0
2018-07-21T00:26:28.591Z,0
2018-07-21T00:26:54.727Z,0
2018-07-21T00:27:20.872Z,0
2018-07-21T00:27:47.007Z,0
2018-07-21T00:28:13.149Z,0
2018-07-21T00:28:39.308Z,0
2018-07-21T00:29:05.447Z,0
2018-07-21T00:29:31.602Z,0
2018-07-21T00:29:57.743Z,0
2018-07-21T00:30:23.885Z,0
2018-07-21T00:30:50.027Z,0
2018-07-21T00:31:16.184Z,0
2018-07-21T00:31:42.312Z,0
2018-07-21T00:32:08.452Z,0
2018-07-21T00:32:34.607Z,0
2018-07-21T00:33:00.746Z,0
2018-07-21T00:33:26.911Z,0
2018-07-21T00:33:53.049Z,0
2018-07-21T00:34:19.197Z,0
2018-07-21T00:34:45.368Z,0
2018-07-21T00:35:11.526Z,0
2018-07-21T00:35:37.684Z,0
2018-07-21T00:36:03.827Z,0
2018-07-21T00:36:29.967Z,0
2018-07-21T00:36:56.104Z,0
2018-07-21T00:37:22.249Z,0
2018-07-21T00:37:48.413Z,0
2018-07-21T00:38:14.588Z,0
2018-07-21T00:38:40.728Z,0
2018-07-21T00:39:06.868Z,0
2018-07-21T00:39:33.011Z,0
2018-07-21T00:39:59.173Z,0
2018-07-21T00:40:25.317Z,0
2018-07-21T00:40:51.463Z,0
2018-07-21T00:41:17.604Z,0
2018-07-21T00:41:43.741Z,0
2018-07-21T00:42:09.878Z,0
2018-07-21T00:42:36.046Z,0
2018-07-21T00:43:02.213Z,0
2018-07-21T00:43:28.391Z,0
2018-07-21T00:43:54.531Z,0
2018-07-21T00:44:20.698Z,0
2018-07-21T00:44:46.830Z,0
2018-07-21T00:45:12.974Z,0
2018-07-21T00:45:39.158Z,0
2018-07-21T00:46:05.302Z,0
2018-07-21T00:46:31.442Z,0
2018-07-21T00:46:57.601Z,0
2018-07-21T00:47:23.766Z,0
2018-07-21T00:47:49.926Z,0
2018-07-21T00:48:16.069Z,0
2018-07-21T00:48:42.210Z,0
2018-07-21T00:49:08.351Z,0
2018-07-21T00:49:34.485Z,0
2018-07-21T00:50:00.654Z,0
2018-07-21T00:50:26.792Z,0
2018-07-21T00:50:52.936Z,0
2018-07-21T00:51:19.073Z,0
2018-07-21T00:51:45.220Z,0
2018-07-21T00:52:11.360Z,0
2018-07-21T00:52:37.499Z,0
2018-07-21T00:53:03.663Z,0
2018-07-21T00:53:29.800Z,0
2018-07-21T00:53:55.931Z,0
2018-07-21T00:54:22.075Z,0
2018-07-21T00:54:48.211Z,0
2018-07-21T00:55:14.353Z,0
2018-07-21T00:55:40.492Z,0
2018-07-21T00:56:06.632Z,0
2018-07-21T00:56:32.798Z,0
2018-07-21T00:56:58.938Z,0
2018-07-21T00:57:25.090Z,0
2018-07-21T00:57:51.257Z,0
2018-07-21T00:58:17.421Z,0
2018-07-21T00:58:43.564Z,0
2018-07-21T00:59:09.700Z,0
2018-07-21T00:59:35.847Z,0
2018-07-21T01:00:01.980Z,0
2018-07-21T01:00:28.116Z,0
2018-07-21T01:00:54.260Z,0
2018-07-21T01:01:20.405Z,0
2018-07-21T01:01:46.563Z,0
2018-07-21T01:02:12.705Z,0
2018-07-21T01:02:38.861Z,0
2018-07-21T01:03:04.999Z,0
2018-07-21T01:03:31.136Z,0
2018-07-21T01:03:57.276Z,0
2018-07-21T01:04:23.412Z,0
2018-07-21T01:04:49.556Z,0
2018-07-21T01:05:15.705Z,0
2018-07-21T01:05:41.852Z,0
2018-07-21T01:06:07.993Z,0
2018-07-21T01:06:34.132Z,0
2018-07-21T01:07:00.271Z,0
2018-07-21T01:07:26.409Z,0
2018-07-21T01:07:52.549Z,0
2018-07-21T01:08:18.684Z,0
2018-07-21T01:08:44.827Z,0
2018-07-21T01:09:10.967Z,0
2018-07-21T01:09:37.105Z,0
2018-07-21T01:10:03.245Z,0
2018-07-21T01:10:29.386Z,0
2018-07-21T01:10:55.528Z,0
2018-07-21T01:11:21.683Z,0
2018-07-21T01:11:47.825Z,0
2018-07-21T01:12:13.962Z,0
2018-07-21T01:12:40.100Z,0
2018-07-21T01:13:06.272Z,0
2018-07-21T01:13:32.437Z,0
2018-07-21T01:13:58.570Z,0
2018-07-21T01:14:24.713Z,0
2018-07-21T01:14:50.854Z,0
2018-07-21T01:15:17.011Z,0
2018-07-21T01:15:43.153Z,0
2018-07-21T01:16:09.293Z,0
2018-07-21T01:16:35.431Z,0
2018-07-21T01:17:01.572Z,0
2018-07-21T01:17:27.708Z,0
2018-07-21T01:17:53.853Z,0
2018-07-21T01:18:20.095Z,0
2018-07-21T01:18:46.232Z,0
2018-07-21T01:19:12.401Z,0
2018-07-21T01:19:38.542Z,0
2018-07-21T01:20:04.686Z,0
2018-07-21T01:20:30.846Z,0
2018-07-21T01:20:56.986Z,0
2018-07-21T01:21:23.126Z,0
2018-07-21T01:21:49.293Z,0
2018-07-21T01:22:15.427Z,0
2018-07-21T01:22:41.566Z,0
2018-07-21T01:23:07.704Z,0
2018-07-21T01:23:33.847Z,0
2018-07-21T01:23:59.985Z,0
2018-07-21T01:24:26.124Z,0
2018-07-21T01:24:52.263Z,0
2018-07-21T01:25:18.403Z,0
2018-07-21T01:25:44.552Z,0
2018-07-21T01:26:10.708Z,0
2018-07-21T01:26:36.844Z,0
2018-07-21T01:27:02.984Z,0
2018-07-21T01:27:29.126Z,0
2018-07-21T01:27:55.288Z,0
2018-07-21T01:28:21.435Z,0
2018-07-21T01:28:47.575Z,0
2018-07-21T01:29:13.710Z,0
2018-07-21T01:29:39.861Z,0
2018-07-21T01:30:05.995Z,0
2018-07-21T01:30:32.140Z,0
2018-07-21T01:30:58.283Z,0
2018-07-21T01:31:24.421Z,0
2018-07-21T01:31:50.564Z,0
2018-07-21T01:32:16.707Z,0
2018-07-21T01:32:42.847Z,0
2018-07-21T01:33:09.008Z,0
2018-07-21T01:33:35.146Z,0
2018-07-21T01:34:01.283Z,0
2018-07-21T01:34:27.424Z,0
2018-07-21T01:34:53.592Z,0
2018-07-21T01:35:19.734Z,0
2018-07-21T01:35:45.873Z,0
2018-07-21T01:36:12.007Z,0
2018-07-21T01:36:38.150Z,0
2018-07-21T01:37:04.310Z,0
2018-07-21T01:37:30.456Z,0
2018-07-21T01:37:56.592Z,0
2018-07-21T01:38:22.755Z,0
2018-07-21T01:38:48.889Z,0
2018-07-21T01:39:15.033Z,0
2018-07-21T01:39:41.197Z,0
2018-07-21T01:40:07.358Z,0
2018-07-21T01:40:33.496Z,0
2018-07-21T01:40:59.645Z,0
2018-07-21T01:41:25.778Z,0
2018-07-21T01:41:51.911Z,0
2018-07-21T01:42:18.054Z,0
2018-07-21T01:42:44.223Z,0
2018-07-21T01:43:10.355Z,0
2018-07-21T01:43:36.522Z,0
2018-07-21T01:44:02.659Z,0
2018-07-21T01:44:28.804Z,0
2018-07-21T01:44:54.992Z,0
2018-07-21T01:45:21.130Z,0
2018-07-21T01:45:47.297Z,0
2018-07-21T01:46:13.434Z,0
2018-07-21T01:46:39.582Z,0
2018-07-21T01:47:05.717Z,0
2018-07-21T01:47:31.850Z,0
2018-07-21T01:47:57.995Z,0
2018-07-21T01:48:24.153Z,0
2018-07-21T01:48:50.307Z,0
2018-07-21T01:49:16.804Z,0
2018-07-21T01:49:44.299Z,0
2018-07-21T01:50:10.376Z,0
2018-07-21T01:50:36.538Z,0
2018-07-21T01:51:02.713Z,0
2018-07-21T01:51:28.877Z,0
2018-07-21T01:51:55.037Z,0
2018-07-21T01:52:21.183Z,0
2018-07-21T01:52:47.338Z,0
2018-07-21T01:53:13.477Z,0
2018-07-21T01:53:39.618Z,0
2018-07-21T01:54:05.755Z,0
2018-07-21T01:54:31.891Z,0
2018-07-21T01:54:58.032Z,0
2018-07-21T01:55:24.170Z,0
2018-07-21T01:55:50.335Z,0
2018-07-21T01:56:16.474Z,0
2018-07-21T01:56:42.617Z,0
2018-07-21T01:57:08.755Z,0
2018-07-21T01:57:34.891Z,0
2018-07-21T01:58:01.058Z,0
2018-07-21T01:58:27.194Z,0
2018-07-21T01:58:53.336Z,0
2018-07-21T01:59:19.500Z,0
2018-07-21T01:59:45.646Z,0
2018-07-21T02:00:11.792Z,0
2018-07-21T02:00:37.979Z,0
2018-07-21T02:01:04.137Z,0
2018-07-21T02:01:30.296Z,0
2018-07-21T02:01:56.444Z,0
2018-07-21T02:02:22.625Z,0
2018-07-21T02:02:48.767Z,0
2018-07-21T02:03:14.934Z,0
2018-07-21T02:03:41.072Z,0
2018-07-21T02:04:07.209Z,0
2018-07-21T02:04:33.351Z,0
2018-07-21T02:04:59.488Z,0
2018-07-21T02:05:25.647Z,0
2018-07-21T02:05:51.815Z,0
2018-07-21T02:06:17.956Z,0
2018-07-21T02:06:44.096Z,0
2018-07-21T02:07:10.234Z,0
2018-07-21T02:07:36.379Z,0
2018-07-21T02:08:02.520Z,0
2018-07-21T02:08:28.658Z,0
2018-07-21T02:08:54.842Z,0
2018-07-21T02:09:21.001Z,0
2018-07-21T02:09:47.134Z,0
2018-07-21T02:10:13.298Z,0
2018-07-21T02:10:39.441Z,0
2018-07-21T02:11:05.609Z,0
2018-07-21T02:11:31.744Z,0
2018-07-21T02:11:57.878Z,0
2018-07-21T02:12:24.052Z,0
2018-07-21T02:12:50.209Z,0
2018-07-21T02:13:16.348Z,0
2018-07-21T02:13:42.492Z,0
2018-07-21T02:14:08.653Z,0
2018-07-21T02:14:34.794Z,0
2018-07-21T02:15:00.951Z,0
2018-07-21T02:15:27.114Z,0
2018-07-21T02:15:53.255Z,0
2018-07-21T02:16:19.398Z,0
2018-07-21T02:16:45.544Z,0
2018-07-21T02:17:11.678Z,0
2018-07-21T02:17:37.840Z,0
2018-07-21T02:18:03.979Z,0
2018-07-21T02:18:30.119Z,0
2018-07-21T02:18:56.256Z,0
2018-07-21T02:19:22.393Z,0
2018-07-21T02:19:48.554Z,0
2018-07-21T02:20:14.689Z,0
2018-07-21T02:20:40.830Z,0
2018-07-21T02:21:07.064Z,0
2018-07-21T02:21:33.218Z,0
2018-07-21T02:21:59.356Z,0
2018-07-21T02:22:25.533Z,0
2018-07-21T02:22:51.643Z,0
2018-07-21T02:23:17.782Z,0
2018-07-21T02:23:43.991Z,0
2018-07-21T02:24:10.101Z,0
2018-07-21T02:24:36.244Z,0
2018-07-21T02:25:02.378Z,0
2018-07-21T02:25:28.522Z,0
2018-07-21T02:25:54.656Z,0
2018-07-21T02:26:20.802Z,0
2018-07-21T02:26:46.936Z,0
2018-07-21T02:27:13.075Z,0
2018-07-21T02:27:39.217Z,0
2018-07-21T02:28:05.353Z,0
2018-07-21T02:28:31.503Z,0
2018-07-21T02:28:57.634Z,0
2018-07-21T02:29:23.800Z,0
2018-07-21T02:29:49.944Z,0
2018-07-21T02:30:16.085Z,0
2018-07-21T02:30:42.272Z,0
2018-07-21T02:31:08.433Z,0
2018-07-21T02:31:34.581Z,0
2018-07-21T02:32:00.740Z,0
2018-07-21T02:32:26.885Z,0
2018-07-21T02:32:53.024Z,0
2018-07-21T02:33:19.203Z,0
2018-07-21T02:33:45.368Z,0
2018-07-21T02:34:11.510Z,0
2018-07-21T02:34:37.658Z,0
2018-07-21T02:35:03.816Z,0
2018-07-21T02:35:29.982Z,0
2018-07-21T02:35:56.151Z,0
2018-07-21T02:36:22.314Z,0
2018-07-21T02:36:48.455Z,0
2018-07-21T02:37:14.620Z,0
2018-07-21T02:37:40.784Z,0
2018-07-21T02:38:06.948Z,0
2018-07-21T02:38:33.137Z,0
2018-07-21T02:38:59.278Z,0
2018-07-21T02:39:25.455Z,0
2018-07-21T02:39:51.605Z,0
2018-07-21T02:40:17.789Z,0
2018-07-21T02:40:43.974Z,0
2018-07-21T02:41:10.118Z,0
2018-07-21T02:41:36.341Z,0
2018-07-21T02:42:02.497Z,0
2018-07-21T02:42:28.659Z,0
2018-07-21T02:42:54.804Z,0
2018-07-21T02:43:20.937Z,0
2018-07-21T02:43:47.097Z,0
2018-07-21T02:44:13.265Z,0
2018-07-21T02:44:39.462Z,0
2018-07-21T02:45:05.641Z,0
2018-07-21T02:45:31.880Z,0
2018-07-21T02:45:57.942Z,0
2018-07-21T02:46:24.076Z,0
2018-07-21T02:46:50.238Z,0
2018-07-21T02:47:16.379Z,0
2018-07-21T02:47:42.563Z,0
2018-07-21T02:48:08.707Z,0
2018-07-21T02:48:34.845Z,0
2018-07-21T02:49:01.013Z,0
2018-07-21T02:49:27.152Z,0
2018-07-21T02:49:53.315Z,0
2018-07-21T02:50:19.452Z,0
2018-07-21T02:50:45.632Z,0
2018-07-21T02:51:11.771Z,0
2018-07-21T02:51:37.957Z,0
2018-07-21T02:52:04.124Z,0
2018-07-21T02:52:30.288Z,0
2018-07-21T02:52:56.442Z,0
2018-07-21T02:53:22.607Z,0
2018-07-21T02:53:48.769Z,0
2018-07-21T02:54:14.929Z,0
2018-07-21T02:54:41.100Z,0
2018-07-21T02:55:07.259Z,0
2018-07-21T02:55:33.423Z,0
2018-07-21T02:55:59.560Z,0
2018-07-21T02:56:25.745Z,0
2018-07-21T02:56:51.886Z,0
2018-07-21T02:57:18.052Z,0
2018-07-21T02:57:44.214Z,4
2018-07-21T02:58:10.357Z,4
2018-07-21T02:58:36.519Z,4
2018-07-21T02:59:02.685Z,4
2018-07-21T02:59:28.832Z,4
2018-07-21T02:59:54.991Z,4
2018-07-21T03:00:21.129Z,4
2018-07-21T03:00:47.332Z,0
2018-07-21T03:01:13.472Z,0
2018-07-21T03:01:39.760Z,0
2018-07-21T03:02:05.967Z,0
2018-07-21T03:02:32.219Z,4
2018-07-21T03:02:58.750Z,4
2018-07-21T03:03:25.235Z,4
2018-07-21T03:03:51.451Z,4
2018-07-21T03:04:17.584Z,4
2018-07-21T03:04:43.754Z,4
2018-07-21T03:05:09.893Z,4
2018-07-21T03:05:36.052Z,4
2018-07-21T03:06:02.215Z,4
2018-07-21T03:06:28.394Z,4
2018-07-21T03:06:54.561Z,4
2018-07-21T03:07:20.721Z,4
2018-07-21T03:07:46.885Z,4
2018-07-21T03:08:13.039Z,8
2018-07-21T03:08:39.202Z,8
2018-07-21T03:09:05.339Z,4
2018-07-21T03:09:31.483Z,4
2018-07-21T03:09:57.671Z,8
2018-07-21T03:10:23.776Z,8
2018-07-21T03:10:49.921Z,8
2018-07-21T03:11:16.108Z,8
2018-07-21T03:11:42.249Z,8
2018-07-21T03:12:08.388Z,8
2018-07-21T03:12:34.584Z,8
2018-07-21T03:13:00.769Z,12
2018-07-21T03:13:26.914Z,12
2018-07-21T03:13:53.054Z,8
2018-07-21T03:14:19.189Z,12
2018-07-21T03:14:45.339Z,12
2018-07-21T03:15:11.498Z,12
2018-07-21T03:15:37.637Z,12
2018-07-21T03:16:03.773Z,12
2018-07-21T03:16:29.942Z,12
2018-07-21T03:16:56.077Z,12
2018-07-21T03:17:22.238Z,16
2018-07-21T03:17:48.377Z,16
2018-07-21T03:18:14.530Z,16
2018-07-21T03:18:40.720Z,16
2018-07-21T03:19:06.857Z,16
2018-07-21T03:19:33.069Z,20
2018-07-21T03:19:59.217Z,20
2018-07-21T03:20:25.380Z,20
2018-07-21T03:20:51.537Z,24
2018-07-21T03:21:17.685Z,24
2018-07-21T03:21:43.869Z,24
2018-07-21T03:22:10.037Z,24
2018-07-21T03:22:36.209Z,28
2018-07-21T03:23:02.389Z,28
2018-07-21T03:23:28.540Z,32
2018-07-21T03:23:54.684Z,32
2018-07-21T03:24:20.841Z,36
2018-07-21T03:24:46.987Z,36
2018-07-21T03:25:13.122Z,40
2018-07-21T03:25:39.293Z,40
2018-07-21T03:26:05.482Z,40
2018-07-21T03:26:31.638Z,44
2018-07-21T03:26:57.774Z,48
2018-07-21T03:27:23.917Z,52
2018-07-21T03:27:50.060Z,52
2018-07-21T03:28:16.200Z,56
2018-07-21T03:28:42.363Z,60
2018-07-21T03:29:08.497Z,64
2018-07-21T03:29:34.646Z,64
2018-07-21T03:30:00.775Z,68
2018-07-21T03:30:26.939Z,72
2018-07-21T03:30:53.137Z,76
2018-07-21T03:31:19.281Z,80
2018-07-21T03:31:45.482Z,80
2018-07-21T03:32:11.693Z,84
2018-07-21T03:32:37.827Z,88
2018-07-21T03:33:03.968Z,92
2018-07-21T03:33:31.848Z,96
2018-07-21T03:33:59.750Z,96
2018-07-21T03:34:27.301Z,104
2018-07-21T03:34:53.656Z,104
2018-07-21T03:35:19.796Z,108
2018-07-21T03:35:45.938Z,108
2018-07-21T03:36:12.093Z,112
2018-07-21T03:36:38.236Z,112
2018-07-21T03:37:04.375Z,112
2018-07-21T03:37:30.542Z,116
2018-07-21T03:37:56.690Z,116
2018-07-21T03:38:22.840Z,120
2018-07-21T03:38:48.980Z,120
2018-07-21T03:39:15.126Z,124
2018-07-21T03:39:41.268Z,120
2018-07-21T03:40:07.454Z,124
2018-07-21T03:40:33.639Z,128
2018-07-21T03:40:59.776Z,128
2018-07-21T03:41:25.968Z,128
2018-07-21T03:41:52.131Z,132
2018-07-21T03:42:18.277Z,132
2018-07-21T03:42:44.412Z,136
2018-07-21T03:43:10.556Z,136
2018-07-21T03:43:36.690Z,140
2018-07-21T03:44:02.831Z,144
2018-07-21T03:44:28.995Z,140
2018-07-21T03:44:55.161Z,144
2018-07-21T03:45:21.333Z,144
2018-07-21T03:45:47.451Z,148
2018-07-21T03:46:13.589Z,148
2018-07-21T03:46:39.748Z,152
2018-07-21T03:47:05.884Z,152
2018-07-21T03:47:32.025Z,152
2018-07-21T03:47:58.161Z,156
2018-07-21T03:48:24.302Z,156
2018-07-21T03:48:50.462Z,156
2018-07-21T03:49:16.604Z,164
2018-07-21T03:49:42.767Z,164
2018-07-21T03:50:08.908Z,168
2018-07-21T03:50:35.072Z,172
2018-07-21T03:51:01.237Z,176
2018-07-21T03:51:27.384Z,180
2018-07-21T03:51:53.528Z,188
2018-07-21T03:52:19.674Z,196
2018-07-21T03:52:45.817Z,200
2018-07-21T03:53:11.955Z,208
2018-07-21T03:53:38.095Z,212
2018-07-21T03:54:04.250Z,224
2018-07-21T03:54:30.433Z,228
2018-07-21T03:54:56.599Z,236
2018-07-21T03:55:22.733Z,244
2018-07-21T03:55:48.870Z,252
2018-07-21T03:56:15.056Z,256
2018-07-21T03:56:41.189Z,268
2018-07-21T03:57:07.338Z,272
2018-07-21T03:57:33.472Z,280
2018-07-21T03:57:59.609Z,288
2018-07-21T03:58:25.757Z,292
2018-07-21T03:58:51.891Z,304
2018-07-21T03:59:18.040Z,308
2018-07-21T03:59:44.181Z,316
2018-07-21T04:00:10.321Z,324
2018-07-21T04:00:36.584Z,328
2018-07-21T04:01:02.690Z,340
2018-07-21T04:01:28.826Z,344
2018-07-21T04:01:54.968Z,352
2018-07-21T04:02:21.118Z,360
2018-07-21T04:02:47.247Z,372
2018-07-21T04:03:13.387Z,384
2018-07-21T04:03:39.520Z,392
2018-07-21T04:04:05.661Z,400
2018-07-21T04:04:31.828Z,412
2018-07-21T04:04:57.991Z,424
2018-07-21T04:05:24.154Z,432
2018-07-21T04:05:50.297Z,444
2018-07-21T04:06:16.436Z,452
2018-07-21T04:06:42.601Z,464
2018-07-21T04:07:08.754Z,472
2018-07-21T04:07:34.888Z,484
2018-07-21T04:08:01.036Z,488
2018-07-21T04:08:27.176Z,496
2018-07-21T04:08:53.405Z,504
2018-07-21T04:09:19.480Z,508
2018-07-21T04:09:45.617Z,512
2018-07-21T04:10:11.753Z,516
2018-07-21T04:10:37.895Z,516
2018-07-21T04:11:04.036Z,516
2018-07-21T04:11:30.180Z,520
2018-07-21T04:11:56.336Z,520
2018-07-21T04:12:22.477Z,524
2018-07-21T04:12:48.612Z,524
2018-07-21T04:13:14.776Z,524
2018-07-21T04:13:40.925Z,528
2018-07-21T04:14:07.063Z,528
2018-07-21T04:14:33.200Z,528
2018-07-21T04:14:59.344Z,528
2018-07-21T04:15:25.477Z,528
2018-07-21T04:15:51.614Z,528
2018-07-21T04:16:17.761Z,532
2018-07-21T04:16:43.900Z,532
2018-07-21T04:17:10.071Z,532
2018-07-21T04:17:36.242Z,536
2018-07-21T04:18:02.405Z,536
2018-07-21T04:18:28.542Z,536
2018-07-21T04:18:54.707Z,540
2018-07-21T04:19:20.844Z,544
2018-07-21T04:19:47.003Z,540
2018-07-21T04:20:13.165Z,544
2018-07-21T04:20:39.303Z,544
2018-07-21T04:21:05.444Z,544
2018-07-21T04:21:31.591Z,544
2018-07-21T04:21:57.756Z,540
2018-07-21T04:22:23.890Z,536
2018-07-21T04:22:50.060Z,532
2018-07-21T04:23:16.243Z,524
2018-07-21T04:23:42.379Z,516
2018-07-21T04:24:08.541Z,508
2018-07-21T04:24:34.662Z,500
2018-07-21T04:25:00.834Z,492
2018-07-21T04:25:26.993Z,488
2018-07-21T04:25:53.155Z,480
2018-07-21T04:26:19.292Z,472
2018-07-21T04:26:45.437Z,468
2018-07-21T04:27:11.572Z,464
2018-07-21T04:27:37.714Z,460
2018-07-21T04:28:03.873Z,452
2018-07-21T04:28:30.004Z,448
2018-07-21T04:28:56.174Z,448
2018-07-21T04:29:22.341Z,444
2018-07-21T04:29:48.508Z,440
2018-07-21T04:30:14.640Z,436
2018-07-21T04:30:40.782Z,432
2018-07-21T04:31:06.945Z,432
2018-07-21T04:31:33.086Z,428
2018-07-21T04:31:59.216Z,428
2018-07-21T04:32:25.360Z,428
2018-07-21T04:32:51.526Z,428
2018-07-21T04:33:17.676Z,432
2018-07-21T04:33:43.807Z,432
2018-07-21T04:34:09.961Z,436
2018-07-21T04:34:36.099Z,440
2018-07-21T04:35:02.239Z,440
2018-07-21T04:35:28.400Z,444
2018-07-21T04:35:54.534Z,444
2018-07-21T04:36:20.668Z,448
2018-07-21T04:36:46.819Z,456
2018-07-21T04:37:12.955Z,460
2018-07-21T04:37:39.089Z,460
2018-07-21T04:38:05.258Z,468
2018-07-21T04:38:31.422Z,472
2018-07-21T04:38:57.569Z,480
2018-07-21T04:39:23.706Z,488
2018-07-21T04:39:49.850Z,496
2018-07-21T04:40:15.986Z,504
2018-07-21T04:40:42.123Z,512
2018-07-21T04:41:08.268Z,516
2018-07-21T04:41:34.412Z,528
2018-07-21T04:42:00.555Z,536
2018-07-21T04:42:26.720Z,540
2018-07-21T04:42:52.854Z,552
2018-07-21T04:43:19.022Z,556
2018-07-21T04:43:45.162Z,564
2018-07-21T04:44:11.299Z,568
2018-07-21T04:44:37.441Z,576
2018-07-21T04:45:03.587Z,588
2018-07-21T04:45:29.743Z,592
2018-07-21T04:45:55.881Z,596
2018-07-21T04:46:22.022Z,604
2018-07-21T04:46:48.165Z,612
2018-07-21T04:47:14.298Z,620
2018-07-21T04:47:40.445Z,624
2018-07-21T04:48:06.605Z,632
2018-07-21T04:48:32.748Z,640
2018-07-21T04:48:58.886Z,648
2018-07-21T04:49:25.030Z,656
2018-07-21T04:49:51.167Z,668
2018-07-21T04:50:17.665Z,676
2018-07-21T04:50:43.827Z,684
2018-07-21T04:51:09.965Z,696
2018-07-21T04:51:36.105Z,704
2018-07-21T04:52:02.243Z,712
2018-07-21T04:52:28.386Z,724
2018-07-21T04:52:54.526Z,736
2018-07-21T04:53:20.664Z,744
2018-07-21T04:53:46.818Z,760
2018-07-21T04:54:12.933Z,772
2018-07-21T04:54:39.068Z,784
2018-07-21T04:55:05.243Z,800
2018-07-21T04:55:31.413Z,816
2018-07-21T04:55:57.547Z,828
2018-07-21T04:56:23.692Z,848
2018-07-21T04:56:49.819Z,860
2018-07-21T04:57:15.986Z,876
2018-07-21T04:57:42.130Z,896
2018-07-21T04:58:08.275Z,908
2018-07-21T04:58:34.436Z,928
2018-07-21T04:59:00.576Z,948
2018-07-21T04:59:26.737Z,968
2018-07-21T04:59:52.876Z,996
2018-07-21T05:00:19.015Z,1020
2018-07-21T05:00:45.215Z,1048
2018-07-21T05:01:11.317Z,1080
2018-07-21T05:01:37.456Z,1120
2018-07-21T05:02:03.597Z,1168
2018-07-21T05:02:29.760Z,1220
2018-07-21T05:02:55.897Z,1280
2018-07-21T05:03:22.035Z,1356
2018-07-21T05:03:48.173Z,1436
2018-07-21T05:04:14.306Z,1520
2018-07-21T05:04:40.454Z,1600
2018-07-21T05:05:06.591Z,1680
2018-07-21T05:05:32.731Z,1752
2018-07-21T05:05:58.871Z,1816
2018-07-21T05:06:25.008Z,1880
2018-07-21T05:06:51.147Z,1940
2018-07-21T05:07:17.345Z,1996
2018-07-21T05:07:43.428Z,2052
2018-07-21T05:08:09.570Z,2112
2018-07-21T05:08:35.712Z,2180
2018-07-21T05:09:01.850Z,2248
2018-07-21T05:09:27.997Z,2320
2018-07-21T05:09:54.134Z,2392
2018-07-21T05:10:20.275Z,2460
2018-07-21T05:10:46.414Z,2524
2018-07-21T05:11:12.557Z,2588
2018-07-21T05:11:38.690Z,2640
2018-07-21T05:12:04.832Z,2688
2018-07-21T05:12:30.971Z,2736
2018-07-21T05:12:57.110Z,2776
2018-07-21T05:13:23.250Z,2812
2018-07-21T05:13:49.388Z,2836
2018-07-21T05:14:15.552Z,2852
2018-07-21T05:14:41.697Z,2852
2018-07-21T05:15:07.859Z,2844
2018-07-21T05:15:33.998Z,2832
2018-07-21T05:16:00.133Z,2828
2018-07-21T05:16:26.273Z,2840
2018-07-21T05:16:52.416Z,2844
2018-07-21T05:17:18.575Z,2836
2018-07-21T05:17:44.716Z,2828
2018-07-21T05:18:10.863Z,2804
2018-07-21T05:18:37.005Z,2772
2018-07-21T05:19:03.151Z,2728
2018-07-21T05:19:29.288Z,2684
2018-07-21T05:19:55.432Z,2668
2018-07-21T05:20:21.590Z,2680
2018-07-21T05:20:47.737Z,2708
2018-07-21T05:21:13.874Z,2752
2018-07-21T05:21:40.019Z,2808
2018-07-21T05:22:06.170Z,2872
2018-07-21T05:22:32.306Z,2936
2018-07-21T05:22:58.491Z,3016
2018-07-21T05:23:24.635Z,3128
2018-07-21T05:23:50.777Z,3272
2018-07-21T05:24:16.941Z,3424
2018-07-21T05:24:43.083Z,3596
2018-07-21T05:25:09.256Z,3780
2018-07-21T05:25:35.420Z,3956
2018-07-21T05:26:01.555Z,4120
2018-07-21T05:26:27.697Z,4268
2018-07-21T05:26:53.846Z,4392
2018-07-21T05:27:19.981Z,4496
2018-07-21T05:27:46.127Z,4588
2018-07-21T05:28:12.289Z,4680
2018-07-21T05:28:38.429Z,4768
2018-07-21T05:29:04.565Z,4872
2018-07-21T05:29:30.702Z,4972
2018-07-21T05:29:56.842Z,5076
2018-07-21T05:30:23.000Z,5184
2018-07-21T05:30:49.139Z,5300
2018-07-21T05:31:15.278Z,5424
2018-07-21T05:31:41.418Z,5552
2018-07-21T05:32:07.554Z,5676
2018-07-21T05:32:33.714Z,5824
2018-07-21T05:32:59.880Z,5964
2018-07-21T05:33:26.041Z,6100
2018-07-21T05:33:52.164Z,6220
2018-07-21T05:34:18.305Z,6328
2018-07-21T05:34:44.444Z,6408
2018-07-21T05:35:10.585Z,6460
2018-07-21T05:35:36.742Z,6492
2018-07-21T05:36:02.886Z,6512
2018-07-21T05:36:29.019Z,6516
2018-07-21T05:36:55.162Z,6492
2018-07-21T05:37:21.320Z,6436
2018-07-21T05:37:47.461Z,6356
2018-07-21T05:38:13.608Z,6264
2018-07-21T05:38:39.745Z,6184
2018-07-21T05:39:05.954Z,6112
2018-07-21T05:39:32.097Z,6048
2018-07-21T05:39:58.233Z,5992
2018-07-21T05:40:24.380Z,5964
2018-07-21T05:40:50.518Z,5952
2018-07-21T05:41:16.677Z,5948
2018-07-21T05:41:42.815Z,5936
2018-07-21T05:42:08.956Z,5924
2018-07-21T05:42:35.099Z,5912
2018-07-21T05:43:01.237Z,5916
2018-07-21T05:43:27.381Z,5916
2018-07-21T05:43:53.518Z,5928
2018-07-21T05:44:19.665Z,5952
2018-07-21T05:44:45.827Z,5988
2018-07-21T05:45:12.018Z,6024
2018-07-21T05:45:38.109Z,6072
2018-07-21T05:46:04.269Z,6132
2018-07-21T05:46:30.409Z,6184
2018-07-21T05:46:56.548Z,6236
2018-07-21T05:47:22.690Z,6252
2018-07-21T05:47:48.828Z,6256
2018-07-21T05:48:14.967Z,6260
2018-07-21T05:48:41.131Z,6276
2018-07-21T05:49:07.325Z,6312
2018-07-21T05:49:33.487Z,6352
2018-07-21T05:49:59.637Z,6384
2018-07-21T05:50:25.772Z,6388
2018-07-21T05:50:51.913Z,6400
2018-07-21T05:51:18.066Z,6416
2018-07-21T05:51:44.208Z,6424
2018-07-21T05:52:10.347Z,6436
2018-07-21T05:52:36.507Z,6464
2018-07-21T05:53:02.670Z,6496
2018-07-21T05:53:28.784Z,6528
2018-07-21T05:53:54.920Z,6576
2018-07-21T05:54:21.054Z,6624
2018-07-21T05:54:47.217Z,6684
2018-07-21T05:55:13.355Z,6744
2018-07-21T05:55:39.495Z,6804
2018-07-21T05:56:05.657Z,6868
2018-07-21T05:56:31.795Z,6932
2018-07-21T05:56:57.943Z,6980
2018-07-21T05:57:24.081Z,7028
2018-07-21T05:57:50.217Z,7072
2018-07-21T05:58:16.386Z,7104
2018-07-21T05:58:42.528Z,7148
2018-07-21T05:59:08.697Z,7204
2018-07-21T05:59:34.849Z,7260
2018-07-21T06:00:00.998Z,7320
2018-07-21T06:00:27.136Z,7408
2018-07-21T06:00:53.302Z,7520
2018-07-21T06:01:19.438Z,7624
2018-07-21T06:01:45.576Z,7688
2018-07-21T06:02:11.720Z,7704
2018-07-21T06:02:37.899Z,7672
2018-07-21T06:03:04.111Z,7600
2018-07-21T06:03:30.175Z,7528
2018-07-21T06:03:56.317Z,7452
2018-07-21T06:04:22.449Z,7384
2018-07-21T06:04:48.594Z,7320
2018-07-21T06:05:14.762Z,7260
2018-07-21T06:05:40.900Z,7188
2018-07-21T06:06:07.042Z,7124
2018-07-21T06:06:33.180Z,7064
2018-07-21T06:06:59.322Z,7016
2018-07-21T06:07:25.460Z,6972
2018-07-21T06:07:51.603Z,6948
2018-07-21T06:08:17.739Z,6932
2018-07-21T06:08:43.885Z,6912
2018-07-21T06:09:10.039Z,6888
2018-07-21T06:09:36.227Z,6876
2018-07-21T06:10:02.388Z,6864
2018-07-21T06:10:28.533Z,6880
2018-07-21T06:10:54.671Z,6912
2018-07-21T06:11:20.804Z,6948
2018-07-21T06:11:46.956Z,6988